Hafnia Magellan — 9V3279 — position and weather

sailwx.info

Track history (hours):
 
Tides and Currents Weather Stations Pressure Air Temp Water Temp Dewpoint Dewpoint Depression Visibility Wind Speed Wind Dir Waves Ship Positions

Hafnia Magellan

Last reported at 2017-Oct-16 23:28 UTC. Time now 2017-Oct-17 11:16 UTC.
Position N 36°15' E 014°53'.

Length 184 m; draft 9.3 m.

Type: Tanker. MMSI: 566573000.

Date/timePositionNaut miles runAvg speedWind from/ knotsBaromVisibWave heightAir tempDewpointWater temp
2017-Oct-16 23:28N 36°15' E 014°53'612.8
2017-Oct-16 23:00N 36°18' E 014°46'712.9
2017-Oct-16 22:30N 36°21' E 014°39'612.9
2017-Oct-16 22:00N 36°24' E 014°32'713.0
2017-Oct-16 21:30N 36°27' E 014°25'713.3
2017-Oct-16 20:59N 36°31' E 014°18'613.3
2017-Oct-16 20:31N 36°34' E 014°11'713.4
2017-Oct-16 20:00N 36°37' E 014°03'713.2
2017-Oct-16 19:30N 36°40' E 013°56'713.1
2017-Oct-16 19:00N 36°44' E 013°49'713.1
2017-Oct-16 18:30N 36°47' E 013°42'613.0
2017-Oct-16 18:00N 36°50' E 013°35'713.1
2017-Oct-16 17:30N 36°53' E 013°28'613.0
2017-Oct-16 17:00N 36°57' E 013°21'612.9
2017-Oct-16 16:30N 37°00' E 013°14'612.8
2017-Oct-16 16:00N 37°03' E 013°07'712.7
2017-Oct-16 15:29N 37°06' E 012°60'612.6
2017-Oct-16 15:00N 37°09' E 012°53'1312.6
2017-Oct-16 13:56N 37°17' E 012°39'712.8
2017-Oct-16 13:25N 37°19' E 012°31'612.8
2017-Oct-16 12:57N 37°22' E 012°25'612.6
2017-Oct-16 12:30N 37°25' E 012°19'1012.5
2017-Oct-16 11:40N 37°30' E 012°07'412.0
2017-Oct-16 11:22N 37°32' E 012°03'512.2
2017-Oct-16 10:57N 37°34' E 011°58'3212.4
2017-Oct-16 08:21N 37°52' E 011°24'1112.6
2017-Oct-16 07:30N 37°59' E 011°13'3912.9
2017-Oct-16 04:26N 38°11' E 010°25'512.2
2017-Oct-16 04:00N 38°12' E 010°19'712.2
2017-Oct-16 03:28N 38°14' E 010°11'712.0
2017-Oct-16 02:51N 38°16' E 010°02'412.0
2017-Oct-16 02:30N 38°17' E 009°57'1011.9
2017-Oct-16 01:38N 38°20' E 009°44'311.3
2017-Oct-16 01:23N 38°21' E 009°41'411.3
2017-Oct-16 00:59N 38°22' E 009°35'611.3
2017-Oct-16 00:27N 38°24' E 009°28'611.5
2017-Oct-15 23:58N 38°25' E 009°21'2711.8
2017-Oct-15 21:43N 38°33' E 008°48'411.6
2017-Oct-15 21:23N 38°34' E 008°43'611.5
2017-Oct-15 20:55N 38°35' E 008°37'33712.2
2017-Oct-14 17:15N 41°16' E 002°11'  
2017-Oct-12 07:19N 41°18' E 002°10'1 2.4
2017-Oct-12 07:00N 41°18' E 002°11'0 0.2
2017-Oct-12 06:30N 41°18' E 002°11'0 0.0
2017-Oct-12 06:00N 41°18' E 002°11'0 0.0
2017-Oct-12 05:30N 41°18' E 002°11'0 0.0
2017-Oct-12 05:00N 41°18' E 002°11'0 0.0
2017-Oct-12 04:30N 41°18' E 002°11'0 0.0
2017-Oct-12 04:00N 41°18' E 002°11'0 0.0
2017-Oct-12 03:30N 41°18' E 002°11'0 0.0
2017-Oct-12 03:00N 41°18' E 002°11'0 0.0
2017-Oct-12 02:30N 41°18' E 002°11'0 0.0
2017-Oct-12 01:51N 41°18' E 002°12'0 0.0
2017-Oct-12 01:21N 41°18' E 002°11'0 0.0
2017-Oct-12 00:51N 41°18' E 002°12'0 0.0
2017-Oct-12 00:24N 41°18' E 002°12'0 0.0
2017-Oct-11 23:54N 41°18' E 002°12'0 0.0
2017-Oct-11 23:24N 41°18' E 002°12'0 0.0
2017-Oct-11 22:54N 41°18' E 002°12'0 0.0
2017-Oct-11 22:21N 41°18' E 002°12'0 0.0
2017-Oct-11 21:57N 41°18' E 002°12'0 0.0
2017-Oct-11 21:27N 41°18' E 002°12'0 0.0
2017-Oct-11 20:57N 41°18' E 002°12'0 0.1
2017-Oct-11 20:27N 41°18' E 002°12'0 0.0
2017-Oct-11 19:57N 41°18' E 002°12'0 0.0
2017-Oct-11 19:27N 41°18' E 002°12'0 0.0
2017-Oct-11 19:00N 41°18' E 002°12'0 0.0
2017-Oct-11 18:30N 41°18' E 002°12'0 0.0
2017-Oct-11 18:00N 41°18' E 002°12'0 0.0
2017-Oct-11 17:30N 41°18' E 002°12'0 0.0
2017-Oct-11 17:00N 41°18' E 002°12'0 0.0
2017-Oct-11 00:00N 41°18' E 002°12'0 0.0
2017-Oct-10 23:30N 41°18' E 002°12'0 0.0
2017-Oct-10 23:00N 41°18' E 002°12'0 0.0
2017-Oct-10 22:30N 41°18' E 002°12'0 0.0
2017-Oct-10 21:51N 41°18' E 002°12'0 0.0
2017-Oct-10 21:21N 41°18' E 002°12'0 0.0
2017-Oct-10 20:54N 41°18' E 002°12'0 0.1
2017-Oct-10 20:24N 41°18' E 002°11'0 0.1
2017-Oct-10 19:54N 41°18' E 002°11'0 0.0
2017-Oct-10 18:36N 41°18' E 002°11'0 0.0
2017-Oct-10 18:12N 41°18' E 002°11'0 0.0
2017-Oct-10 17:57N 41°18' E 002°11'0 0.0
2017-Oct-10 17:27N 41°18' E 002°11'0 0.0
2017-Oct-10 16:39N 41°18' E 002°11'0 0.1
2017-Oct-10 16:27N 41°18' E 002°11'0 0.0
2017-Oct-10 15:54N 41°18' E 002°11'0 0.0
2017-Oct-10 15:27N 41°18' E 002°11'0 0.0
2017-Oct-10 14:57N 41°18' E 002°11'0 0.0
2017-Oct-10 14:00N 41°18' E 002°11'0 0.0
2017-Oct-10 13:30N 41°18' E 002°11'0 0.0
2017-Oct-10 13:00N 41°18' E 002°11'0 0.0
2017-Oct-10 10:30N 41°18' E 002°11'0 0.0
2017-Oct-10 03:06N 41°18' E 002°12'0 0.3
2017-Oct-10 02:57N 41°18' E 002°12'0 0.1
2017-Oct-10 02:27N 41°18' E 002°12'0 0.0
2017-Oct-10 01:57N 41°18' E 002°12'0 0.0
2017-Oct-10 01:27N 41°18' E 002°12'0 0.1
2017-Oct-10 01:00N 41°18' E 002°12'0 0.0
2017-Oct-10 00:30N 41°18' E 002°12'0 0.0
2017-Oct-10 00:00N 41°18' E 002°11'0 0.1
2017-Oct-09 23:30N 41°18' E 002°11'0 0.0
2017-Oct-09 23:00N 41°18' E 002°11'0 0.0
2017-Oct-09 22:30N 41°18' E 002°11'0 0.0
2017-Oct-09 22:00N 41°18' E 002°11'0 0.0
2017-Oct-09 21:30N 41°18' E 002°11'0 0.0
2017-Oct-09 20:48N 41°18' E 002°11'0 0.1
2017-Oct-09 20:30N 41°18' E 002°11'0 0.0
2017-Oct-09 19:51N 41°18' E 002°11'0 0.0
2017-Oct-09 19:30N 41°18' E 002°11'0 0.0
2017-Oct-09 19:00N 41°18' E 002°11'0 0.0
2017-Oct-09 18:30N 41°18' E 002°11'0 0.0
2017-Oct-09 17:48N 41°18' E 002°11'0 0.0
2017-Oct-09 17:21N 41°18' E 002°11'0 0.0
2017-Oct-09 16:54N 41°18' E 002°11'0 0.0
2017-Oct-09 16:09N 41°18' E 002°11'0 0.1
2017-Oct-09 15:54N 41°18' E 002°11'0 0.0
2017-Oct-09 15:24N 41°18' E 002°11'0 0.0
2017-Oct-09 14:39N 41°18' E 002°11'0 0.0
2017-Oct-09 14:24N 41°18' E 002°11'0 0.0
2017-Oct-09 11:24N 41°18' E 002°11'0 0.0
2017-Oct-09 10:54N 41°18' E 002°11'0 0.1
2017-Oct-09 10:15N 41°18' E 002°11'0 0.3
2017-Oct-09 10:00N 41°18' E 002°12'0 0.0
2017-Oct-09 09:30N 41°18' E 002°12'0 0.0
2017-Oct-09 09:00N 41°18' E 002°12'0 0.0
2017-Oct-09 08:27N 41°18' E 002°12'0 0.0
2017-Oct-09 08:00N 41°18' E 002°12'0 0.0
2017-Oct-09 07:30N 41°18' E 002°12'0 0.1
2017-Oct-09 07:00N 41°18' E 002°12'0 0.0
2017-Oct-09 06:30N 41°18' E 002°12'0 0.0
2017-Oct-09 06:00N 41°18' E 002°12'0 0.0
2017-Oct-09 05:21N 41°18' E 002°12'0 0.0
2017-Oct-09 05:00N 41°18' E 002°12'0 0.0
2017-Oct-09 04:21N 41°18' E 002°12'0 0.0
2017-Oct-09 03:51N 41°18' E 002°12'0 0.0
2017-Oct-09 03:21N 41°18' E 002°12'0 0.0
2017-Oct-09 02:54N 41°18' E 002°12'0 0.0
2017-Oct-09 02:21N 41°18' E 002°12'0 0.0
2017-Oct-09 01:54N 41°18' E 002°12'0 0.0
2017-Oct-08 23:57N 41°18' E 002°11'0 0.1
2017-Oct-08 23:27N 41°18' E 002°12'0 0.0
2017-Oct-08 22:57N 41°18' E 002°12'0 0.0
2017-Oct-08 22:27N 41°18' E 002°12'0 0.0
2017-Oct-08 21:57N 41°18' E 002°12'0 0.0
2017-Oct-08 21:30N 41°18' E 002°12'0 0.0
2017-Oct-08 21:00N 41°18' E 002°12'0 0.0
2017-Oct-08 20:30N 41°18' E 002°12'0 0.0
2017-Oct-08 20:00N 41°18' E 002°12'0 0.0
2017-Oct-08 19:30N 41°18' E 002°12'0 0.0
2017-Oct-08 19:00N 41°18' E 002°12'0 0.0
2017-Oct-08 18:30N 41°18' E 002°12'0 0.0
2017-Oct-08 18:00N 41°18' E 002°12'0 0.0
2017-Oct-08 17:30N 41°18' E 002°12'0 0.0
2017-Oct-08 17:00N 41°18' E 002°12'0 0.0
2017-Oct-08 16:30N 41°18' E 002°12'0 0.0
2017-Oct-08 16:00N 41°18' E 002°12'0 0.0
2017-Oct-08 15:30N 41°18' E 002°12'0 0.0
2017-Oct-08 15:00N 41°18' E 002°12'0 0.0
2017-Oct-08 14:21N 41°18' E 002°12'0 0.0
2017-Oct-08 13:51N 41°18' E 002°12'0 0.0
2017-Oct-08 13:21N 41°18' E 002°12'0 0.0
2017-Oct-08 12:51N 41°18' E 002°11'0 0.0
2017-Oct-08 12:21N 41°18' E 002°11'0 0.0
2017-Oct-08 11:54N 41°18' E 002°11'0 0.0
2017-Oct-08 11:24N 41°18' E 002°11'0 0.0
2017-Oct-08 10:54N 41°18' E 002°11'0 0.0
2017-Oct-08 10:24N 41°18' E 002°11'0 0.1
2017-Oct-08 09:57N 41°18' E 002°11'13 2.7
2017-Oct-08 05:12N 41°06' E 002°07'210.1
2017-Oct-08 04:59N 41°04' E 002°05'229 9.5
2017-Oct-07 04:54N 37°45' W 000°20'4 9.4
2017-Oct-07 04:30N 37°42' W 000°23'5 9.5
2017-Oct-07 04:00N 37°38' W 000°26'5 9.4
2017-Oct-07 03:30N 37°34' W 000°30'5 9.4
2017-Oct-07 03:00N 37°31' W 000°33'5 9.5
2017-Oct-07 02:26N 37°27' W 000°38'4 9.4
2017-Oct-07 02:00N 37°24' W 000°42'5 9.4
2017-Oct-07 01:30N 37°21' W 000°46'5 9.4
2017-Oct-07 01:00N 37°17' W 000°50'5 9.5
2017-Oct-07 00:30N 37°14' W 000°55'5 9.4
2017-Oct-06 23:57N 37°11' W 000°59'  
Track history (hours):
 
Tides and Currents Weather Stations Pressure Air Temp Water Temp Dewpoint Dewpoint Depression Visibility Wind Speed Wind Dir Waves Ship Positions

Hafnia Magellan

Last reported at 2017-Oct-16 23:28 UTC. Time now 2017-Oct-17 11:16 UTC.
Position N 36°15' E 014°53'.

Length 184 m; draft 9.3 m.

Type: Tanker. MMSI: 566573000.

Date/timePositionNaut miles runAvg speedWind from/ knotsBaromVisibWave heightAir tempDewpointWater temp
2017-Oct-16 23:28N 36°15' E 014°53'612.8
2017-Oct-16 23:00N 36°18' E 014°46'712.9
2017-Oct-16 22:30N 36°21' E 014°39'612.9
2017-Oct-16 22:00N 36°24' E 014°32'713.0
2017-Oct-16 21:30N 36°27' E 014°25'713.3
2017-Oct-16 20:59N 36°31' E 014°18'613.3
2017-Oct-16 20:31N 36°34' E 014°11'713.4
2017-Oct-16 20:00N 36°37' E 014°03'713.2
2017-Oct-16 19:30N 36°40' E 013°56'713.1
2017-Oct-16 19:00N 36°44' E 013°49'713.1
2017-Oct-16 18:30N 36°47' E 013°42'613.0
2017-Oct-16 18:00N 36°50' E 013°35'713.1
2017-Oct-16 17:30N 36°53' E 013°28'613.0
2017-Oct-16 17:00N 36°57' E 013°21'612.9
2017-Oct-16 16:30N 37°00' E 013°14'612.8
2017-Oct-16 16:00N 37°03' E 013°07'712.7
2017-Oct-16 15:29N 37°06' E 012°60'612.6
2017-Oct-16 15:00N 37°09' E 012°53'1312.6
2017-Oct-16 13:56N 37°17' E 012°39'712.8
2017-Oct-16 13:25N 37°19' E 012°31'612.8
2017-Oct-16 12:57N 37°22' E 012°25'612.6
2017-Oct-16 12:30N 37°25' E 012°19'1012.5
2017-Oct-16 11:40N 37°30' E 012°07'412.0
2017-Oct-16 11:22N 37°32' E 012°03'512.2
2017-Oct-16 10:57N 37°34' E 011°58'3212.4
2017-Oct-16 08:21N 37°52' E 011°24'1112.6
2017-Oct-16 07:30N 37°59' E 011°13'3912.9
2017-Oct-16 04:26N 38°11' E 010°25'512.2
2017-Oct-16 04:00N 38°12' E 010°19'712.2
2017-Oct-16 03:28N 38°14' E 010°11'712.0
2017-Oct-16 02:51N 38°16' E 010°02'412.0
2017-Oct-16 02:30N 38°17' E 009°57'1011.9
2017-Oct-16 01:38N 38°20' E 009°44'311.3
2017-Oct-16 01:23N 38°21' E 009°41'411.3
2017-Oct-16 00:59N 38°22' E 009°35'611.3
2017-Oct-16 00:27N 38°24' E 009°28'611.5
2017-Oct-15 23:58N 38°25' E 009°21'2711.8
2017-Oct-15 21:43N 38°33' E 008°48'411.6
2017-Oct-15 21:23N 38°34' E 008°43'611.5
2017-Oct-15 20:55N 38°35' E 008°37'33712.2
2017-Oct-14 17:15N 41°16' E 002°11'  
2017-Oct-12 07:19N 41°18' E 002°10'1 2.4
2017-Oct-12 07:00N 41°18' E 002°11'0 0.2
2017-Oct-12 06:30N 41°18' E 002°11'0 0.0
2017-Oct-12 06:00N 41°18' E 002°11'0 0.0
2017-Oct-12 05:30N 41°18' E 002°11'0 0.0
2017-Oct-12 05:00N 41°18' E 002°11'0 0.0
2017-Oct-12 04:30N 41°18' E 002°11'0 0.0
2017-Oct-12 04:00N 41°18' E 002°11'0 0.0
2017-Oct-12 03:30N 41°18' E 002°11'0 0.0
2017-Oct-12 03:00N 41°18' E 002°11'0 0.0
2017-Oct-12 02:30N 41°18' E 002°11'0 0.0
2017-Oct-12 01:51N 41°18' E 002°12'0 0.0
2017-Oct-12 01:21N 41°18' E 002°11'0 0.0
2017-Oct-12 00:51N 41°18' E 002°12'0 0.0
2017-Oct-12 00:24N 41°18' E 002°12'0 0.0
2017-Oct-11 23:54N 41°18' E 002°12'0 0.0
2017-Oct-11 23:24N 41°18' E 002°12'0 0.0
2017-Oct-11 22:54N 41°18' E 002°12'0 0.0
2017-Oct-11 22:21N 41°18' E 002°12'0 0.0
2017-Oct-11 21:57N 41°18' E 002°12'0 0.0
2017-Oct-11 21:27N 41°18' E 002°12'0 0.0
2017-Oct-11 20:57N 41°18' E 002°12'0 0.1
2017-Oct-11 20:27N 41°18' E 002°12'0 0.0
2017-Oct-11 19:57N 41°18' E 002°12'0 0.0
2017-Oct-11 19:27N 41°18' E 002°12'0 0.0
2017-Oct-11 19:00N 41°18' E 002°12'0 0.0
2017-Oct-11 18:30N 41°18' E 002°12'0 0.0
2017-Oct-11 18:00N 41°18' E 002°12'0 0.0
2017-Oct-11 17:30N 41°18' E 002°12'0 0.0
2017-Oct-11 17:00N 41°18' E 002°12'0 0.0
2017-Oct-11 00:00N 41°18' E 002°12'0 0.0
2017-Oct-10 23:30N 41°18' E 002°12'0 0.0
2017-Oct-10 23:00N 41°18' E 002°12'0 0.0
2017-Oct-10 22:30N 41°18' E 002°12'0 0.0
2017-Oct-10 21:51N 41°18' E 002°12'0 0.0
2017-Oct-10 21:21N 41°18' E 002°12'0 0.0
2017-Oct-10 20:54N 41°18' E 002°12'0 0.1
2017-Oct-10 20:24N 41°18' E 002°11'0 0.1
2017-Oct-10 19:54N 41°18' E 002°11'0 0.0
2017-Oct-10 18:36N 41°18' E 002°11'0 0.0
2017-Oct-10 18:12N 41°18' E 002°11'0 0.0
2017-Oct-10 17:57N 41°18' E 002°11'0 0.0
2017-Oct-10 17:27N 41°18' E 002°11'0 0.0
2017-Oct-10 16:39N 41°18' E 002°11'0 0.1
2017-Oct-10 16:27N 41°18' E 002°11'0 0.0
2017-Oct-10 15:54N 41°18' E 002°11'0 0.0
2017-Oct-10 15:27N 41°18' E 002°11'0 0.0
2017-Oct-10 14:57N 41°18' E 002°11'0 0.0
2017-Oct-10 14:00N 41°18' E 002°11'0 0.0
2017-Oct-10 13:30N 41°18' E 002°11'0 0.0
2017-Oct-10 13:00N 41°18' E 002°11'0 0.0
2017-Oct-10 10:30N 41°18' E 002°11'0 0.0
2017-Oct-10 03:06N 41°18' E 002°12'0 0.3
2017-Oct-10 02:57N 41°18' E 002°12'0 0.1
2017-Oct-10 02:27N 41°18' E 002°12'0 0.0
2017-Oct-10 01:57N 41°18' E 002°12'0 0.0
2017-Oct-10 01:27N 41°18' E 002°12'0 0.1
2017-Oct-10 01:00N 41°18' E 002°12'0 0.0
2017-Oct-10 00:30N 41°18' E 002°12'0 0.0
2017-Oct-10 00:00N 41°18' E 002°11'0 0.1
2017-Oct-09 23:30N 41°18' E 002°11'0 0.0
2017-Oct-09 23:00N 41°18' E 002°11'0 0.0
2017-Oct-09 22:30N 41°18' E 002°11'0 0.0
2017-Oct-09 22:00N 41°18' E 002°11'0 0.0
2017-Oct-09 21:30N 41°18' E 002°11'0 0.0
2017-Oct-09 20:48N 41°18' E 002°11'0 0.1
2017-Oct-09 20:30N 41°18' E 002°11'0 0.0
2017-Oct-09 19:51N 41°18' E 002°11'0 0.0
2017-Oct-09 19:30N 41°18' E 002°11'0 0.0
2017-Oct-09 19:00N 41°18' E 002°11'0 0.0
2017-Oct-09 18:30N 41°18' E 002°11'0 0.0
2017-Oct-09 17:48N 41°18' E 002°11'0 0.0
2017-Oct-09 17:21N 41°18' E 002°11'0 0.0
2017-Oct-09 16:54N 41°18' E 002°11'0 0.0
2017-Oct-09 16:09N 41°18' E 002°11'0 0.1
2017-Oct-09 15:54N 41°18' E 002°11'0 0.0
2017-Oct-09 15:24N 41°18' E 002°11'0 0.0
2017-Oct-09 14:39N 41°18' E 002°11'0 0.0
2017-Oct-09 14:24N 41°18' E 002°11'0 0.0
2017-Oct-09 11:24N 41°18' E 002°11'0 0.0
2017-Oct-09 10:54N 41°18' E 002°11'0 0.1
2017-Oct-09 10:15N 41°18' E 002°11'0 0.3
2017-Oct-09 10:00N 41°18' E 002°12'0 0.0
2017-Oct-09 09:30N 41°18' E 002°12'0 0.0
2017-Oct-09 09:00N 41°18' E 002°12'0 0.0
2017-Oct-09 08:27N 41°18' E 002°12'0 0.0
2017-Oct-09 08:00N 41°18' E 002°12'0 0.0
2017-Oct-09 07:30N 41°18' E 002°12'0 0.1
2017-Oct-09 07:00N 41°18' E 002°12'0 0.0
2017-Oct-09 06:30N 41°18' E 002°12'0 0.0
2017-Oct-09 06:00N 41°18' E 002°12'0 0.0
2017-Oct-09 05:21N 41°18' E 002°12'0 0.0
2017-Oct-09 05:00N 41°18' E 002°12'0 0.0
2017-Oct-09 04:21N 41°18' E 002°12'0 0.0
2017-Oct-09 03:51N 41°18' E 002°12'0 0.0
2017-Oct-09 03:21N 41°18' E 002°12'0 0.0
2017-Oct-09 02:54N 41°18' E 002°12'0 0.0
2017-Oct-09 02:21N 41°18' E 002°12'0 0.0
2017-Oct-09 01:54N 41°18' E 002°12'0 0.0
2017-Oct-08 23:57N 41°18' E 002°11'0 0.1
2017-Oct-08 23:27N 41°18' E 002°12'0 0.0
2017-Oct-08 22:57N 41°18' E 002°12'0 0.0
2017-Oct-08 22:27N 41°18' E 002°12'0 0.0
2017-Oct-08 21:57N 41°18' E 002°12'0 0.0
2017-Oct-08 21:30N 41°18' E 002°12'0 0.0
2017-Oct-08 21:00N 41°18' E 002°12'0 0.0
2017-Oct-08 20:30N 41°18' E 002°12'0 0.0
2017-Oct-08 20:00N 41°18' E 002°12'0 0.0
2017-Oct-08 19:30N 41°18' E 002°12'0 0.0
2017-Oct-08 19:00N 41°18' E 002°12'0 0.0
2017-Oct-08 18:30N 41°18' E 002°12'0 0.0
2017-Oct-08 18:00N 41°18' E 002°12'0 0.0
2017-Oct-08 17:30N 41°18' E 002°12'0 0.0
2017-Oct-08 17:00N 41°18' E 002°12'0 0.0
2017-Oct-08 16:30N 41°18' E 002°12'0 0.0
2017-Oct-08 16:00N 41°18' E 002°12'0 0.0
2017-Oct-08 15:30N 41°18' E 002°12'0 0.0
2017-Oct-08 15:00N 41°18' E 002°12'0 0.0
2017-Oct-08 14:21N 41°18' E 002°12'0 0.0
2017-Oct-08 13:51N 41°18' E 002°12'0 0.0
2017-Oct-08 13:21N 41°18' E 002°12'0 0.0
2017-Oct-08 12:51N 41°18' E 002°11'0 0.0
2017-Oct-08 12:21N 41°18' E 002°11'0 0.0
2017-Oct-08 11:54N 41°18' E 002°11'0 0.0
2017-Oct-08 11:24N 41°18' E 002°11'0 0.0
2017-Oct-08 10:54N 41°18' E 002°11'0 0.0
2017-Oct-08 10:24N 41°18' E 002°11'0 0.1
2017-Oct-08 09:57N 41°18' E 002°11'13 2.7
2017-Oct-08 05:12N 41°06' E 002°07'210.1
2017-Oct-08 04:59N 41°04' E 002°05'229 9.5
2017-Oct-07 04:54N 37°45' W 000°20'4 9.4
2017-Oct-07 04:30N 37°42' W 000°23'5 9.5
2017-Oct-07 04:00N 37°38' W 000°26'5 9.4
2017-Oct-07 03:30N 37°34' W 000°30'5 9.4
2017-Oct-07 03:00N 37°31' W 000°33'5 9.5
2017-Oct-07 02:26N 37°27' W 000°38'4 9.4
2017-Oct-07 02:00N 37°24' W 000°42'5 9.4
2017-Oct-07 01:30N 37°21' W 000°46'5 9.4
2017-Oct-07 01:00N 37°17' W 000°50'5 9.5
2017-Oct-07 00:30N 37°14' W 000°55'5 9.4
2017-Oct-06 23:57N 37°11' W 000°59'  

Dump ship's entire track history